Time;durP1;ratioP1;P1;durP2;ratioP2;P2;SDS_P1;SDS_P2;PMS_P1;PMS_P2;Temp;Humidity;BMP_temperature;BMP_pressure;BME280_temperature;BME280_humidity;BME280_pressure;Samples;Min_cycle;Max_cycle;Signal;HPM_P1;HPM_P2
2023/01/18 00:01:02;;;;;;;10.07;2.40;;;-4.70;99.90;;;;;;5059503;28;20041;-56
2023/01/18 00:03:32;;;;;;;8.20;2.70;;;-4.70;99.90;;;;;;5060222;28;20037;-58
2023/01/18 00:06:00;;;;;;;36.13;13.40;;;-4.60;99.90;;;;;;5058436;28;20174;-62
2023/01/18 00:08:26;;;;;;;28.40;9.73;;;-4.60;99.90;;;;;;5070530;28;20113;-61
2023/01/18 00:10:52;;;;;;;17.17;6.10;;;-4.80;99.90;;;;;;5057571;28;20873;-61
2023/01/18 00:13:17;;;;;;;12.48;4.53;;;-5.00;99.90;;;;;;5059934;28;20872;-59
2023/01/18 00:15:43;;;;;;;14.05;4.20;;;-5.00;99.90;;;;;;5060492;28;20084;-62
2023/01/18 00:18:08;;;;;;;11.55;4.28;;;-5.00;99.90;;;;;;5052076;28;20060;-60
2023/01/18 00:20:34;;;;;;;11.77;4.28;;;-5.00;99.90;;;;;;5046925;28;20057;-61
2023/01/18 00:23:01;;;;;;;5.22;2.60;;;-5.00;99.90;;;;;;5048174;28;20033;-57
2023/01/18 00:25:27;;;;;;;9.77;2.55;;;-4.90;99.90;;;;;;5047564;28;20041;-60
2023/01/18 00:27:54;;;;;;;8.25;2.50;;;-4.80;99.90;;;;;;5047302;28;20122;-61
2023/01/18 00:30:23;;;;;;;11.75;4.07;;;-4.80;99.90;;;;;;5046623;28;20029;-59
2023/01/18 00:32:53;;;;;;;76.38;32.38;;;-4.70;99.90;;;;;;5040578;28;20074;-61
2023/01/18 00:35:21;;;;;;;33.40;13.77;;;-4.70;99.90;;;;;;5047742;28;20056;-61
2023/01/18 00:37:50;;;;;;;21.92;9.95;;;-4.70;99.90;;;;;;5041768;28;20045;-60
2023/01/18 00:40:17;;;;;;;21.60;8.35;;;-4.80;99.90;;;;;;5038401;28;20029;-59
2023/01/18 00:45:27;;;;;;;23.98;8.88;;;-4.80;99.90;;;;;;5044038;28;20091;-61
2023/01/18 00:47:53;;;;;;;19.80;7.13;;;-4.90;99.90;;;;;;5046954;28;20075;-59
2023/01/18 00:50:21;;;;;;;18.05;5.30;;;-4.90;99.90;;;;;;5046873;28;20452;-61
2023/01/18 00:52:47;;;;;;;17.80;6.22;;;-5.00;99.90;;;;;;5046823;28;20040;-59
2023/01/18 00:55:14;;;;;;;13.25;5.57;;;-5.00;99.90;;;;;;5046365;28;20412;-58
2023/01/18 00:57:40;;;;;;;15.65;6.00;;;-4.90;99.90;;;;;;5046983;28;20051;-61
2023/01/18 01:00:08;;;;;;;27.58;11.65;;;-4.90;99.90;;;;;;5045154;28;20037;-61
2023/01/18 01:02:37;;;;;;;22.42;9.65;;;-4.90;99.90;;;;;;5044675;28;20045;-62
2023/01/18 01:07:48;;;;;;;16.70;7.05;;;-5.10;99.90;;;;;;5047056;28;20047;-54
2023/01/18 01:10:14;;;;;;;24.20;10.10;;;-5.10;99.90;;;;;;5045739;28;20036;-61
2023/01/18 01:26:24;;;;;;;46.47;16.45;;;-5.20;99.90;;;;;;5045728;28;20041;-62
2023/01/18 01:28:51;;;;;;;55.78;22.85;;;-5.20;99.90;;;;;;5038290;28;20055;-61
2023/01/18 01:31:18;;;;;;;70.32;26.48;;;-5.20;99.90;;;;;;5044427;28;20037;-59
2023/01/18 01:33:47;;;;;;;57.95;21.88;;;-5.20;99.90;;;;;;5047538;28;20072;-62
2023/01/18 01:36:15;;;;;;;121.80;47.92;;;-5.20;99.90;;;;;;5041766;28;20079;-58
2023/01/18 01:38:41;;;;;;;84.63;34.40;;;-5.30;99.90;;;;;;5040009;28;20060;-60
2023/01/18 01:41:24;;;;;;;61.67;23.30;;;-5.20;99.90;;;;;;5044070;28;20111;-52
2023/01/18 01:43:55;;;;;;;20.92;9.10;;;-5.20;99.90;;;;;;5043939;28;20060;-56
2023/01/18 01:46:43;;;;;;;24.63;11.00;;;-5.20;99.90;;;;;;5037815;28;20052;-54
2023/01/18 01:49:22;;;;;;;46.20;17.65;;;-5.20;99.90;;;;;;5045591;28;20048;-55
2023/01/18 01:51:59;;;;;;;63.75;27.58;;;-5.20;99.90;;;;;;5045278;28;20045;-59
2023/01/18 01:54:32;;;;;;;83.43;34.05;;;-5.20;99.90;;;;;;5044665;28;20052;-57
2023/01/18 01:57:05;;;;;;;85.47;36.88;;;-5.20;99.90;;;;;;5036122;28;20053;-55
2023/01/18 01:59:38;;;;;;;30.92;15.52;;;-5.20;99.90;;;;;;5046612;28;20087;-59
2023/01/18 02:02:04;;;;;;;16.65;7.50;;;-5.20;99.90;;;;;;5043121;28;20059;-60
2023/01/18 02:04:31;;;;;;;14.20;6.38;;;-5.30;99.90;;;;;;5045528;28;20033;-58
2023/01/18 02:06:56;;;;;;;13.68;6.72;;;-5.30;99.90;;;;;;5045548;28;20045;-56
2023/01/18 02:09:22;;;;;;;13.43;6.63;;;-5.30;99.90;;;;;;5043997;28;20072;-61
2023/01/18 02:11:53;;;;;;;15.60;6.25;;;-5.30;99.90;;;;;;5043904;28;21247;-59
2023/01/18 02:14:22;;;;;;;18.45;7.72;;;-5.30;99.90;;;;;;5040578;28;20029;-60
2023/01/18 02:17:22;;;;;;;15.27;5.97;;;-5.30;99.90;;;;;;5046966;28;20037;-61
2023/01/18 02:20:03;;;;;;;16.23;7.45;;;-5.30;99.90;;;;;;5041045;28;20113;-61
2023/01/18 02:22:31;;;;;;;42.33;17.98;;;-5.30;99.90;;;;;;5039222;28;20044;-60
2023/01/18 02:25:22;;;;;;;43.38;19.40;;;-5.30;99.90;;;;;;5045006;28;20045;-62
2023/01/18 02:28:06;;;;;;;48.78;19.95;;;-5.40;99.90;;;;;;5038964;28;20049;-61
2023/01/18 02:30:40;;;;;;;25.50;11.07;;;-5.40;99.90;;;;;;5036844;28;20099;-60
2023/01/18 02:33:13;;;;;;;26.08;10.85;;;-5.40;99.90;;;;;;5044396;28;20151;-61
2023/01/18 02:36:20;;;;;;;30.80;13.50;;;-5.40;99.90;;;;;;5045008;28;20036;-60
2023/01/18 02:38:48;;;;;;;76.68;30.13;;;-5.30;99.90;;;;;;5012858;28;20500;-58
2023/01/18 02:47:17;;;;;;;15.05;5.72;;;-5.20;99.90;;;;;;5043829;28;20049;-59
2023/01/18 02:49:43;;;;;;;18.52;5.82;;;-5.10;99.90;;;;;;5045950;28;20051;-60
2023/01/18 02:52:40;;;;;;;21.02;7.32;;;-5.10;99.90;;;;;;5041463;28;20032;-59
2023/01/18 02:55:11;;;;;;;14.20;7.38;;;-5.00;99.90;;;;;;5042225;28;20041;-60
2023/01/18 02:57:37;;;;;;;15.23;7.15;;;-4.90;99.90;;;;;;5045654;28;20116;-59
2023/01/18 03:00:07;;;;;;;19.20;6.80;;;-4.90;99.90;;;;;;5044138;28;20041;-58
2023/01/18 03:02:34;;;;;;;16.92;5.40;;;-4.80;99.90;;;;;;5043350;28;20048;-59
2023/01/18 03:05:00;;;;;;;12.63;5.05;;;-4.80;99.90;;;;;;5045278;28;20497;-59
2023/01/18 03:07:29;;;;;;;10.60;4.82;;;-4.70;99.90;;;;;;5045577;28;20119;-60
2023/01/18 03:09:57;;;;;;;11.10;5.00;;;-4.70;99.90;;;;;;5044561;28;20045;-57
2023/01/18 03:12:48;;;;;;;23.23;5.38;;;-4.70;99.90;;;;;;5035162;28;20060;-59
2023/01/18 03:15:35;;;;;;;11.82;5.07;;;-4.60;99.90;;;;;;5042237;28;20064;-58
2023/01/18 03:18:32;;;;;;;13.00;4.00;;;-4.60;99.90;;;;;;5046059;28;20124;-61
2023/01/18 03:20:57;;;;;;;;;;;-4.70;99.90;;;;;;5045564;28;20060;-55
2023/01/18 03:23:40;;;;;;;14.70;5.40;;;-4.70;99.90;;;;;;5046389;28;19917;-56
2023/01/18 03:26:09;;;;;;;17.92;6.18;;;-4.60;99.90;;;;;;5045604;28;20045;-51
2023/01/18 03:34:34;;;;;;;17.75;5.53;;;-4.50;99.90;;;;;;5044627;28;20775;-59
2023/01/18 03:37:04;;;;;;;15.05;7.22;;;-4.40;99.90;;;;;;5045021;28;20517;-61
2023/01/18 03:39:44;;;;;;;17.10;7.28;;;-4.40;99.90;;;;;;5044134;28;20095;-57
2023/01/18 03:42:14;;;;;;;19.00;6.65;;;-4.40;99.90;;;;;;5040311;28;20061;-60
2023/01/18 03:44:54;;;;;;;15.82;6.97;;;-4.50;99.90;;;;;;5039196;28;20049;-58
2023/01/18 03:47:20;;;;;;;15.75;7.03;;;-4.40;99.90;;;;;;5044114;28;20056;-58
2023/01/18 03:49:46;;;;;;;13.40;6.45;;;-4.40;99.90;;;;;;5041710;28;20041;-56
2023/01/18 03:52:24;;;;;;;11.35;4.78;;;-4.50;99.90;;;;;;5043916;28;20079;-58
2023/01/18 03:55:01;;;;;;;9.48;4.53;;;-4.50;99.90;;;;;;5049082;28;20181;-56
2023/01/18 03:57:40;;;;;;;21.40;7.00;;;-4.50;99.90;;;;;;5047693;28;20088;-55
2023/01/18 04:00:08;;;;;;;8.02;3.92;;;-4.50;99.90;;;;;;5047175;28;20052;-55
2023/01/18 04:02:35;;;;;;;14.00;3.88;;;-4.50;99.90;;;;;;5045727;28;20076;-60
2023/01/18 04:05:02;;;;;;;9.77;4.95;;;-4.50;99.90;;;;;;5047970;28;20053;-60
2023/01/18 04:07:30;;;;;;;12.30;3.97;;;-4.60;99.90;;;;;;5047544;28;20048;-55
2023/01/18 04:09:56;;;;;;;9.63;4.18;;;-4.60;99.90;;;;;;5047045;28;20048;-58
2023/01/18 04:12:22;;;;;;;13.77;5.45;;;-4.50;99.90;;;;;;5038702;28;20118;-60
2023/01/18 04:14:48;;;;;;;13.05;3.95;;;-4.50;99.90;;;;;;5045845;28;20033;-59
2023/01/18 04:17:13;;;;;;;8.88;3.88;;;-4.50;99.90;;;;;;5048934;28;20041;-54
2023/01/18 04:19:42;;;;;;;12.13;4.40;;;-4.40;99.90;;;;;;5047895;28;20059;-51
2023/01/18 04:22:07;;;;;;;9.45;4.47;;;-4.30;99.90;;;;;;5045994;28;20101;-61
2023/01/18 04:24:33;;;;;;;20.30;4.80;;;-4.30;99.90;;;;;;5047926;28;20467;-61
2023/01/18 04:26:59;;;;;;;8.77;4.22;;;-4.30;99.90;;;;;;5048300;28;20102;-59
2023/01/18 04:29:24;;;;;;;18.45;5.93;;;-4.30;99.90;;;;;;5046762;28;20658;-64
2023/01/18 04:31:50;;;;;;;20.63;6.20;;;-4.30;99.90;;;;;;5058370;28;20060;-60
2023/01/18 04:34:15;;;;;;;14.15;5.38;;;-4.30;99.90;;;;;;5048192;28;20124;-60
2023/01/18 04:36:41;;;;;;;8.65;4.95;;;-4.30;99.90;;;;;;5048077;28;20037;-61
2023/01/18 04:39:09;;;;;;;14.05;6.30;;;-4.30;99.90;;;;;;5047357;28;20137;-61
2023/01/18 04:41:35;;;;;;;21.88;6.70;;;-4.30;99.90;;;;;;5043638;28;20037;-56
2023/01/18 04:44:00;;;;;;;21.25;7.28;;;-4.30;99.90;;;;;;5044056;28;20039;-62
2023/01/18 04:46:26;;;;;;;20.42;6.50;;;-4.30;99.90;;;;;;5045243;28;20124;-58
2023/01/18 04:48:52;;;;;;;20.50;6.97;;;-4.30;99.90;;;;;;5039359;28;20039;-60
2023/01/18 04:51:17;;;;;;;16.42;5.82;;;-4.30;99.90;;;;;;5046044;28;20059;-59
2023/01/18 04:53:44;;;;;;;16.63;5.82;;;-4.30;99.90;;;;;;5048723;28;20029;-55
2023/01/18 04:56:11;;;;;;;20.45;6.72;;;-4.30;99.90;;;;;;5046907;28;20072;-50
2023/01/18 04:58:37;;;;;;;22.67;6.80;;;-4.30;99.90;;;;;;5049299;28;20492;-56
2023/01/18 05:01:07;;;;;;;15.25;5.60;;;-4.30;99.90;;;;;;5043940;28;20103;-59
2023/01/18 05:03:36;;;;;;;14.82;4.85;;;-4.30;99.90;;;;;;5048255;28;20106;-60
2023/01/18 05:06:04;;;;;;;19.10;6.32;;;-4.30;99.90;;;;;;5043249;28;20545;-61
2023/01/18 05:08:29;;;;;;;18.25;5.97;;;-4.30;99.90;;;;;;5039875;28;20071;-56
2023/01/18 05:11:03;;;;;;;21.70;6.78;;;-4.40;99.90;;;;;;5043042;28;20473;-57
2023/01/18 05:13:29;;;;;;;18.67;6.50;;;-4.40;99.90;;;;;;5038319;28;20616;-60
2023/01/18 05:15:55;;;;;;;26.52;7.68;;;-4.40;99.90;;;;;;5040727;28;20841;-60
2023/01/18 05:18:21;;;;;;;21.05;7.15;;;-4.40;99.90;;;;;;5039591;28;20047;-52
2023/01/18 05:20:47;;;;;;;17.25;6.82;;;-4.40;99.90;;;;;;5043146;28;20037;-56
2023/01/18 05:23:13;;;;;;;18.85;6.10;;;-4.50;99.90;;;;;;5037382;28;20421;-54
2023/01/18 05:25:39;;;;;;;13.73;6.70;;;-4.50;99.90;;;;;;5045669;28;20044;-56
2023/01/18 05:28:06;;;;;;;15.25;7.10;;;-4.50;99.90;;;;;;5047638;28;20047;-54
2023/01/18 05:30:32;;;;;;;12.65;6.28;;;-4.40;99.90;;;;;;5044343;28;20048;-61
2023/01/18 05:32:59;;;;;;;17.90;6.72;;;-4.50;99.90;;;;;;5043557;28;20064;-61
2023/01/18 05:35:25;;;;;;;21.67;7.03;;;-4.50;99.90;;;;;;5046812;28;20041;-61
2023/01/18 05:37:50;;;;;;;20.83;7.32;;;-4.60;99.90;;;;;;5048839;28;20558;-57
2023/01/18 05:40:16;;;;;;;22.40;7.43;;;-4.50;99.90;;;;;;5045488;28;20056;-61
2023/01/18 05:42:42;;;;;;;15.25;7.25;;;-4.60;99.90;;;;;;5035996;28;20053;-61
2023/01/18 05:45:09;;;;;;;21.48;8.00;;;-4.60;99.90;;;;;;5042852;28;20136;-61
2023/01/18 05:47:35;;;;;;;17.63;7.55;;;-4.50;99.90;;;;;;5047031;28;20052;-61
2023/01/18 05:50:00;;;;;;;15.38;7.20;;;-4.60;99.90;;;;;;5045147;28;20036;-60
2023/01/18 05:52:26;;;;;;;16.05;6.55;;;-4.60;99.90;;;;;;5038481;28;20038;-53
2023/01/18 05:54:51;;;;;;;21.42;7.30;;;-4.60;99.90;;;;;;5043169;28;20565;-59
2023/01/18 05:57:17;;;;;;;20.70;9.18;;;-4.60;99.90;;;;;;5046199;28;20087;-58
2023/01/18 05:59:42;;;;;;;23.52;9.52;;;-4.60;99.90;;;;;;5046408;28;20040;-57
2023/01/18 06:02:08;;;;;;;23.65;8.73;;;-4.60;99.90;;;;;;5040448;28;20049;-58
2023/01/18 06:04:34;;;;;;;25.08;8.90;;;-4.60;99.90;;;;;;5045921;28;20277;-58
2023/01/18 06:07:00;;;;;;;24.30;9.27;;;-4.60;99.90;;;;;;5045417;28;20132;-59
2023/01/18 06:09:26;;;;;;;22.35;9.38;;;-4.60;99.90;;;;;;5047552;28;20683;-60
2023/01/18 06:11:51;;;;;;;20.88;9.05;;;-4.60;99.90;;;;;;5038005;28;20044;-60
2023/01/18 06:14:17;;;;;;;21.25;8.77;;;-4.50;99.90;;;;;;5045677;28;20029;-64
2023/01/18 06:16:42;;;;;;;21.67;9.27;;;-4.60;99.90;;;;;;5045034;28;20051;-58
2023/01/18 06:19:08;;;;;;;23.02;10.40;;;-4.60;99.90;;;;;;5042204;28;20041;-59
2023/01/18 06:21:34;;;;;;;18.98;9.05;;;-4.60;99.90;;;;;;5040738;28;20102;-58
2023/01/18 06:23:59;;;;;;;20.05;9.63;;;-4.60;99.90;;;;;;5040366;28;20162;-56
2023/01/18 06:26:25;;;;;;;21.08;9.57;;;-4.60;99.90;;;;;;5040383;28;20049;-55
2023/01/18 06:28:52;;;;;;;20.08;9.70;;;-4.60;99.90;;;;;;5039581;28;20049;-60
2023/01/18 06:31:17;;;;;;;22.70;9.25;;;-4.50;99.90;;;;;;5055932;28;20033;-60
2023/01/18 06:33:43;;;;;;;20.60;11.07;;;-4.50;99.90;;;;;;5042900;28;20090;-54
2023/01/18 06:36:09;;;;;;;34.65;12.50;;;-4.60;99.90;;;;;;5040904;28;20045;-58
2023/01/18 06:38:35;;;;;;;38.83;13.05;;;-4.60;99.90;;;;;;5046922;28;20033;-60
2023/01/18 06:41:00;;;;;;;29.60;11.52;;;-4.60;99.90;;;;;;5043049;28;20579;-51
2023/01/18 06:43:26;;;;;;;22.92;11.32;;;-4.60;99.90;;;;;;5040215;28;20037;-54
2023/01/18 06:45:53;;;;;;;29.23;11.40;;;-4.60;99.90;;;;;;5043586;28;20053;-60
2023/01/18 06:48:19;;;;;;;29.27;11.10;;;-4.60;99.90;;;;;;5046374;28;20106;-51
2023/01/18 06:50:44;;;;;;;26.13;12.05;;;-4.60;99.90;;;;;;5045816;28;20036;-60
2023/01/18 06:53:10;;;;;;;27.05;11.68;;;-4.60;99.90;;;;;;5045747;28;20068;-57
2023/01/18 06:55:35;;;;;;;26.40;11.85;;;-4.70;99.90;;;;;;5045786;28;20091;-58
2023/01/18 06:58:01;;;;;;;22.48;10.50;;;-4.70;99.90;;;;;;5039625;28;20033;-55
2023/01/18 07:00:27;;;;;;;28.60;11.70;;;-4.70;99.90;;;;;;5041551;28;20033;-55
2023/01/18 07:02:53;;;;;;;27.58;12.60;;;-4.70;99.90;;;;;;5042993;28;20432;-59
2023/01/18 07:05:18;;;;;;;34.53;13.18;;;-4.70;99.90;;;;;;5046206;28;20033;-58
2023/01/18 07:07:45;;;;;;;28.40;12.68;;;-4.70;99.90;;;;;;5060628;28;20148;-60
2023/01/18 07:10:10;;;;;;;23.23;11.15;;;-4.60;99.90;;;;;;5044822;28;20040;-56
2023/01/18 07:12:36;;;;;;;27.90;11.68;;;-4.60;99.90;;;;;;5039322;28;20099;-59
2023/01/18 07:15:04;;;;;;;30.42;11.27;;;-4.60;99.90;;;;;;5042664;28;20026;-62
2023/01/18 07:17:30;;;;;;;24.10;11.43;;;-4.60;99.90;;;;;;5046955;28;20091;-60
2023/01/18 07:19:56;;;;;;;34.65;12.05;;;-4.60;99.90;;;;;;5052769;28;20072;-60
2023/01/18 07:22:22;;;;;;;29.08;12.13;;;-4.60;99.90;;;;;;5068660;28;20037;-59
2023/01/18 07:24:47;;;;;;;29.60;11.48;;;-4.70;99.90;;;;;;5054364;28;20037;-59
2023/01/18 07:27:13;;;;;;;32.30;12.40;;;-4.70;99.90;;;;;;5056661;28;20091;-60
2023/01/18 07:29:39;;;;;;;47.97;16.73;;;-4.70;99.90;;;;;;5047490;28;20037;-60
2023/01/18 07:32:04;;;;;;;32.63;13.02;;;-4.60;99.90;;;;;;5051949;28;20130;-57
2023/01/18 07:34:30;;;;;;;31.27;12.68;;;-4.70;99.90;;;;;;5054122;28;20040;-54
2023/01/18 07:36:56;;;;;;;41.80;13.77;;;-4.60;99.90;;;;;;5051362;28;20037;-52
2023/01/18 07:39:21;;;;;;;40.42;16.08;;;-4.70;99.90;;;;;;5047763;28;20539;-51
2023/01/18 07:41:47;;;;;;;28.05;12.35;;;-4.70;99.90;;;;;;5049384;28;20547;-53
2023/01/18 07:44:14;;;;;;;29.67;13.50;;;-4.70;99.90;;;;;;5049316;28;20068;-52
2023/01/18 07:46:41;;;;;;;32.25;12.70;;;-4.60;99.90;;;;;;5059072;28;20056;-60
2023/01/18 07:49:07;;;;;;;27.23;12.57;;;-4.60;99.90;;;;;;5049025;28;20037;-58
2023/01/18 07:51:33;;;;;;;32.20;12.65;;;-4.60;99.90;;;;;;5046808;28;20490;-56
2023/01/18 07:53:59;;;;;;;34.88;13.77;;;-4.60;99.90;;;;;;5049571;28;20049;-58
2023/01/18 07:56:26;;;;;;;29.45;13.10;;;-4.60;99.90;;;;;;5046043;28;20059;-59
2023/01/18 07:58:53;;;;;;;32.00;13.25;;;-4.50;99.90;;;;;;5050167;28;20090;-61
2023/01/18 08:01:20;;;;;;;29.77;13.32;;;-4.50;99.90;;;;;;5047843;28;20082;-59
2023/01/18 08:03:47;;;;;;;27.67;11.27;;;-4.50;99.90;;;;;;5049031;28;20033;-58
2023/01/18 08:06:17;;;;;;;36.65;15.38;;;-4.50;99.90;;;;;;5047901;28;20702;-58
2023/01/18 08:08:43;;;;;;;32.20;13.98;;;-4.50;99.90;;;;;;5050826;28;20033;-60
2023/01/18 08:11:12;;;;;;;35.53;15.27;;;-4.50;99.90;;;;;;5047299;28;20045;-58
2023/01/18 08:13:38;;;;;;;30.88;14.82;;;-4.40;99.90;;;;;;5046800;28;20059;-61
2023/01/18 08:16:05;;;;;;;52.25;20.70;;;-4.40;99.90;;;;;;5048843;28;20032;-55
2023/01/18 08:18:32;;;;;;;37.40;18.73;;;-4.40;99.90;;;;;;5051023;28;20040;-60
2023/01/18 08:20:57;;;;;;;35.42;16.33;;;-4.30;99.90;;;;;;5046423;28;20047;-60
2023/01/18 08:23:23;;;;;;;36.83;15.80;;;-4.20;99.90;;;;;;5043059;28;20123;-61
2023/01/18 08:25:49;;;;;;;34.70;15.55;;;-4.20;99.90;;;;;;5046551;28;20862;-58
2023/01/18 08:28:15;;;;;;;34.08;15.10;;;-4.20;99.90;;;;;;5049751;28;20037;-60
2023/01/18 08:30:44;;;;;;;33.72;13.63;;;-4.10;99.90;;;;;;5043724;28;20037;-58
2023/01/18 08:33:10;;;;;;;33.17;13.77;;;-4.10;99.90;;;;;;5047439;28;20037;-61
2023/01/18 08:35:44;;;;;;;26.27;12.63;;;-4.00;99.90;;;;;;5048395;28;20063;-58
2023/01/18 08:38:11;;;;;;;27.33;14.23;;;-3.90;99.90;;;;;;5044504;28;20048;-58
2023/01/18 08:40:37;;;;;;;28.38;13.85;;;-3.90;99.90;;;;;;5046528;28;20083;-56
2023/01/18 08:43:03;;;;;;;38.17;13.82;;;-3.90;99.90;;;;;;5046729;28;20079;-59
2023/01/18 08:45:29;;;;;;;38.70;16.45;;;-3.80;99.90;;;;;;5048174;28;20709;-58
2023/01/18 08:48:05;;;;;;;33.38;15.73;;;-3.70;99.90;;;;;;5048470;28;20056;-57
2023/01/18 08:50:32;;;;;;;34.05;15.10;;;-3.60;99.90;;;;;;5047076;28;20045;-57
2023/01/18 08:52:58;;;;;;;46.90;18.55;;;-3.60;99.90;;;;;;5040060;28;20075;-60
2023/01/18 08:55:25;;;;;;;39.60;18.02;;;-3.50;99.90;;;;;;5046262;28;20041;-61
2023/01/18 08:57:54;;;;;;;43.63;17.92;;;-3.40;99.90;;;;;;5049009;28;20041;-60
2023/01/18 09:00:23;;;;;;;43.00;16.92;;;-3.30;99.90;;;;;;5043751;28;20500;-61
2023/01/18 09:02:49;;;;;;;31.77;14.27;;;-3.30;99.90;;;;;;5047836;28;20053;-61
2023/01/18 09:05:14;;;;;;;32.90;14.23;;;-3.20;99.90;;;;;;5047310;28;20045;-55
2023/01/18 09:07:40;;;;;;;37.35;14.23;;;-3.00;99.90;;;;;;5048253;28;20045;-60
2023/01/18 09:10:07;;;;;;;31.40;13.65;;;-2.90;99.90;;;;;;5043930;28;20547;-60
2023/01/18 09:12:34;;;;;;;29.85;13.43;;;-2.90;99.90;;;;;;5051153;28;20045;-62
2023/01/18 09:15:00;;;;;;;28.13;13.40;;;-2.80;99.90;;;;;;5043988;28;20084;-60
2023/01/18 09:17:26;;;;;;;34.58;14.82;;;-2.80;99.90;;;;;;5043809;28;20041;-61
2023/01/18 09:19:53;;;;;;;28.83;12.93;;;-2.70;99.90;;;;;;5044445;28;20048;-61
2023/01/18 09:22:19;;;;;;;31.38;14.20;;;-2.60;99.90;;;;;;5042103;28;20029;-57
2023/01/18 09:24:45;;;;;;;31.83;13.82;;;-2.60;99.90;;;;;;5048629;28;20051;-62
2023/01/18 09:27:12;;;;;;;30.23;12.80;;;-2.50;99.90;;;;;;5045200;28;20577;-56
2023/01/18 09:29:39;;;;;;;25.83;13.20;;;-2.50;99.90;;;;;;5045898;28;20169;-61
2023/01/18 09:32:07;;;;;;;30.38;12.98;;;-2.50;99.90;;;;;;5042389;28;20041;-62
2023/01/18 09:34:33;;;;;;;23.98;11.48;;;-2.40;99.90;;;;;;5059142;28;20033;-62
2023/01/18 09:37:00;;;;;;;26.73;11.90;;;-2.30;99.90;;;;;;5045707;28;20044;-61
2023/01/18 09:39:26;;;;;;;26.02;11.60;;;-2.20;99.90;;;;;;5025801;28;20413;-60
2023/01/18 09:41:55;;;;;;;22.48;10.75;;;-2.10;99.90;;;;;;5041896;28;20059;-60
2023/01/18 09:44:27;;;;;;;26.42;10.95;;;-2.00;99.90;;;;;;5045664;28;20086;-62
2023/01/18 09:47:02;;;;;;;23.27;10.52;;;-1.90;99.90;;;;;;5047217;28;20037;-60
2023/01/18 09:49:55;;;;;;;22.13;9.90;;;-1.80;99.90;;;;;;5044343;28;20045;-61
2023/01/18 09:52:54;;;;;;;23.20;10.48;;;-1.60;99.90;;;;;;5044809;28;20047;-58
2023/01/18 09:55:47;;;;;;;30.25;12.00;;;-1.50;99.90;;;;;;5046591;28;20073;-57
2023/01/18 09:58:26;;;;;;;25.73;10.68;;;-1.50;99.90;;;;;;5044506;28;20459;-60
2023/01/18 10:01:00;;;;;;;25.85;11.25;;;-1.40;99.90;;;;;;5039422;28;20069;-60
2023/01/18 10:03:54;;;;;;;25.15;11.13;;;-1.30;99.90;;;;;;5045789;28;20068;-59
2023/01/18 10:06:45;;;;;;;29.35;10.43;;;-1.10;99.90;;;;;;5043426;28;20140;-59
2023/01/18 10:09:16;;;;;;;23.88;9.02;;;-0.90;99.90;;;;;;5039738;28;20076;-54
2023/01/18 10:11:55;;;;;;;27.08;9.32;;;-0.90;99.90;;;;;;5043799;28;20037;-56
2023/01/18 10:14:47;;;;;;;23.17;10.32;;;-0.80;99.90;;;;;;5037993;28;20037;-58
2023/01/18 10:17:21;;;;;;;24.52;11.05;;;-0.70;99.90;;;;;;5038076;28;20079;-56
2023/01/18 10:19:48;;;;;;;26.48;10.18;;;-0.60;99.90;;;;;;5045339;28;20036;-61
2023/01/18 10:22:21;;;;;;;23.65;9.20;;;-0.50;99.90;;;;;;5048132;28;20045;-57
2023/01/18 10:25:12;;;;;;;16.83;8.77;;;-0.60;99.90;;;;;;5043190;28;20044;-60
2023/01/18 10:27:50;;;;;;;21.30;8.00;;;-0.40;99.90;;;;;;5041943;28;20389;-59
2023/01/18 10:30:40;;;;;;;24.63;9.20;;;-0.30;99.90;;;;;;5039784;28;20029;-61
2023/01/18 10:33:20;;;;;;;16.05;7.47;;;-0.30;99.90;;;;;;5045377;28;20041;-60
2023/01/18 10:35:49;;;;;;;14.93;7.38;;;-0.20;99.90;;;;;;5045684;28;20101;-60
2023/01/18 10:38:24;;;;;;;15.88;7.53;;;-0.10;99.90;;;;;;5041558;28;20071;-61
2023/01/18 10:40:59;;;;;;;13.50;6.53;;;0.10;99.90;;;;;;5042591;28;20616;-61
2023/01/18 10:43:27;;;;;;;15.30;6.53;;;0.10;99.90;;;;;;5046373;28;20041;-59
2023/01/18 10:45:53;;;;;;;13.23;5.93;;;0.20;99.90;;;;;;5042899;28;20037;-61
2023/01/18 10:48:26;;;;;;;14.90;5.75;;;0.30;99.90;;;;;;5047425;28;20049;-58
2023/01/18 10:50:56;;;;;;;15.23;5.68;;;0.30;99.90;;;;;;5041173;28;20138;-61
2023/01/18 10:53:38;;;;;;;14.82;5.80;;;0.40;99.90;;;;;;5045315;28;20059;-59
2023/01/18 10:56:13;;;;;;;14.65;5.95;;;0.50;99.90;;;;;;5045639;28;20045;-56
2023/01/18 10:58:53;;;;;;;13.00;5.82;;;0.60;99.90;;;;;;5047039;28;20045;-61
2023/01/18 11:01:26;;;;;;;15.60;6.70;;;0.60;99.90;;;;;;5042544;28;20098;-57
2023/01/18 11:04:15;;;;;;;17.90;5.75;;;0.60;99.90;;;;;;5045746;28;20094;-60
2023/01/18 11:06:52;;;;;;;13.63;6.07;;;0.60;99.90;;;;;;5043686;28;20094;-59
2023/01/18 11:09:36;;;;;;;13.18;6.00;;;0.50;99.90;;;;;;5037378;28;20044;-61
2023/01/18 11:12:41;;;;;;;15.95;6.40;;;0.40;99.90;;;;;;5041196;28;20041;-56
2023/01/18 11:15:13;;;;;;;13.02;6.55;;;0.30;99.90;;;;;;5037891;28;20041;-58
2023/01/18 11:17:56;;;;;;;18.60;6.63;;;0.20;99.90;;;;;;5046032;28;20045;-56
2023/01/18 11:20:46;;;;;;;11.27;5.13;;;0.20;99.90;;;;;;5046029;28;20424;-59
2023/01/18 11:23:24;;;;;;;8.73;4.40;;;0.20;99.90;;;;;;5041716;28;20053;-56
2023/01/18 11:26:12;;;;;;;8.98;4.80;;;0.30;99.90;;;;;;5041189;28;20044;-54
2023/01/18 11:28:42;;;;;;;12.88;4.82;;;0.30;99.90;;;;;;5040034;28;20040;-58
2023/01/18 11:31:10;;;;;;;10.93;5.05;;;0.50;99.90;;;;;;5043701;28;20190;-61
2023/01/18 11:34:09;;;;;;;12.68;4.20;;;0.50;99.90;;;;;;5045846;28;20489;-60
2023/01/18 11:36:44;;;;;;;8.85;4.90;;;0.50;99.90;;;;;;5032914;28;20801;-61
2023/01/18 11:39:20;;;;;;;10.60;5.13;;;0.30;99.90;;;;;;5045216;28;20043;-61
2023/01/18 11:41:47;;;;;;;8.90;4.35;;;0.30;99.90;;;;;;5042520;28;20294;-58
2023/01/18 11:44:27;;;;;;;10.18;3.72;;;0.30;99.90;;;;;;5041648;28;20045;-60
2023/01/18 11:46:57;;;;;;;11.82;4.45;;;0.20;99.90;;;;;;5042610;28;20045;-61
2023/01/18 11:49:47;;;;;;;16.00;5.15;;;0.30;99.90;;;;;;5045806;28;20044;-56
2023/01/18 11:52:52;;;;;;;12.80;4.60;;;0.40;99.90;;;;;;5042632;28;20560;-61
2023/01/18 11:55:31;;;;;;;8.52;4.35;;;0.50;99.90;;;;;;5042706;28;20520;-60
2023/01/18 11:57:58;;;;;;;9.45;4.00;;;0.60;99.90;;;;;;5037458;28;20416;-62
2023/01/18 12:00:27;;;;;;;14.05;5.15;;;0.60;99.90;;;;;;5035278;28;20052;-56
2023/01/18 12:03:14;;;;;;;6.85;3.88;;;0.40;99.90;;;;;;5044956;28;20040;-61
2023/01/18 12:05:46;;;;;;;8.88;3.72;;;0.40;99.90;;;;;;5039631;28;20056;-59
2023/01/18 12:08:46;;;;;;;10.00;4.10;;;0.40;99.90;;;;;;5042778;28;20091;-61
2023/01/18 12:11:28;;;;;;;13.73;4.97;;;0.40;99.90;;;;;;5039870;28;20033;-55
2023/01/18 12:14:11;;;;;;;11.77;4.03;;;0.40;99.90;;;;;;5045094;28;20053;-60
2023/01/18 12:16:49;;;;;;;7.38;3.85;;;0.30;99.90;;;;;;5045318;28;20048;-58
2023/01/18 12:19:46;;;;;;;11.68;3.88;;;0.30;99.90;;;;;;5046989;28;20033;-56
2023/01/18 12:22:37;;;;;;;9.23;3.17;;;0.40;99.90;;;;;;5045537;28;20045;-54
2023/01/18 12:25:24;;;;;;;10.68;3.53;;;0.20;99.90;;;;;;5047874;28;20615;-60
2023/01/18 12:28:09;;;;;;;9.48;3.53;;;0.30;99.90;;;;;;5043946;28;20520;-62
2023/01/18 12:31:03;;;;;;;6.88;2.92;;;0.30;99.90;;;;;;5040198;28;20459;-60
2023/01/18 12:34:16;;;;;;;5.20;2.95;;;0.40;99.90;;;;;;5043053;28;20083;-59
2023/01/18 12:36:44;;;;;;;7.70;3.33;;;0.40;99.90;;;;;;4976289;28;20639;-62
2023/01/18 12:39:30;;;;;;;9.95;3.85;;;0.40;99.90;;;;;;4986693;28;20053;-60
2023/01/18 12:42:02;;;;;;;9.90;3.83;;;0.50;99.90;;;;;;5017663;28;20052;-60
2023/01/18 12:44:46;;;;;;;5.20;2.90;;;0.40;99.90;;;;;;5040722;28;20047;-57
2023/01/18 12:47:33;;;;;;;5.82;3.50;;;0.30;99.90;;;;;;5040063;28;20045;-61
2023/01/18 12:50:06;;;;;;;7.47;3.47;;;0.30;99.90;;;;;;5047223;28;20102;-62
2023/01/18 12:52:41;;;;;;;7.13;3.75;;;0.30;99.90;;;;;;5043024;28;20041;-60
2023/01/18 12:55:15;;;;;;;7.63;3.65;;;0.20;99.90;;;;;;5047842;28;20088;-62
2023/01/18 12:57:41;;;;;;;8.50;3.53;;;0.30;99.90;;;;;;5042443;28;20060;-61
2023/01/18 13:00:18;;;;;;;9.25;3.38;;;0.40;99.90;;;;;;5047444;28;20041;-60
2023/01/18 13:02:49;;;;;;;9.73;3.03;;;0.40;99.90;;;;;;5048208;28;20453;-61
2023/01/18 13:05:21;;;;;;;6.53;2.88;;;0.30;99.90;;;;;;5045757;28;20040;-57
2023/01/18 13:08:07;;;;;;;6.53;3.10;;;0.30;99.90;;;;;;5043470;28;20096;-60
2023/01/18 13:10:35;;;;;;;7.93;3.42;;;0.30;99.90;;;;;;5032597;28;20045;-57
2023/01/18 13:13:04;;;;;;;8.65;3.90;;;0.30;99.90;;;;;;5047895;28;20045;-60
2023/01/18 13:15:42;;;;;;;10.00;3.55;;;0.20;99.90;;;;;;5037877;28;20041;-59
2023/01/18 13:18:32;;;;;;;7.25;3.40;;;0.20;99.90;;;;;;5045988;28;20118;-60
2023/01/18 13:21:40;;;;;;;8.25;3.83;;;0.20;99.90;;;;;;5043175;28;20120;-61
2023/01/18 13:24:17;;;;;;;9.30;3.53;;;0.20;99.90;;;;;;5042950;28;20397;-57
2023/01/18 13:26:43;;;;;;;8.82;3.85;;;0.30;99.90;;;;;;5075762;28;20049;-59
2023/01/18 13:29:09;;;;;;;5.88;3.45;;;0.30;99.90;;;;;;5044314;28;20999;-58
2023/01/18 13:31:36;;;;;;;13.38;4.25;;;0.30;99.90;;;;;;5034136;28;20059;-56